sensor_id;sensor_type;location;lat;lon;timestamp;temperature;humidity
14585;DHT22;7379;51.506;11.876;2024-03-22T00:02:07;10.50;73.40
14585;DHT22;7379;51.506;11.876;2024-03-22T00:04:34;10.50;73.40
14585;DHT22;7379;51.506;11.876;2024-03-22T00:07:00;10.50;73.40
14585;DHT22;7379;51.506;11.876;2024-03-22T00:09:26;10.50;73.40
14585;DHT22;7379;51.506;11.876;2024-03-22T00:11:52;10.40;73.20
14585;DHT22;7379;51.506;11.876;2024-03-22T00:14:18;10.40;73.30
14585;DHT22;7379;51.506;11.876;2024-03-22T00:16:45;10.40;73.30
14585;DHT22;7379;51.506;11.876;2024-03-22T00:19:10;10.40;73.30
14585;DHT22;7379;51.506;11.876;2024-03-22T00:21:38;10.40;73.30
14585;DHT22;7379;51.506;11.876;2024-03-22T00:24:04;10.40;73.30
14585;DHT22;7379;51.506;11.876;2024-03-22T00:26:31;10.40;73.30
14585;DHT22;7379;51.506;11.876;2024-03-22T00:28:56;10.40;73.30
14585;DHT22;7379;51.506;11.876;2024-03-22T00:31:24;10.40;73.30
14585;DHT22;7379;51.506;11.876;2024-03-22T00:33:50;10.40;73.30
14585;DHT22;7379;51.506;11.876;2024-03-22T00:36:17;10.40;73.30
14585;DHT22;7379;51.506;11.876;2024-03-22T00:38:44;10.40;73.30
14585;DHT22;7379;51.506;11.876;2024-03-22T00:41:10;10.40;73.30
14585;DHT22;7379;51.506;11.876;2024-03-22T00:43:36;10.40;73.40
14585;DHT22;7379;51.506;11.876;2024-03-22T00:46:03;10.40;73.40
14585;DHT22;7379;51.506;11.876;2024-03-22T00:48:29;10.40;73.40
14585;DHT22;7379;51.506;11.876;2024-03-22T00:50:55;10.30;73.30
14585;DHT22;7379;51.506;11.876;2024-03-22T00:53:21;10.30;73.30
14585;DHT22;7379;51.506;11.876;2024-03-22T00:55:49;10.30;73.30
14585;DHT22;7379;51.506;11.876;2024-03-22T00:58:17;10.30;73.30
14585;DHT22;7379;51.506;11.876;2024-03-22T01:00:44;10.30;74.10
14585;DHT22;7379;51.506;11.876;2024-03-22T01:03:10;10.30;73.30
14585;DHT22;7379;51.506;11.876;2024-03-22T01:05:37;10.30;73.30
14585;DHT22;7379;51.506;11.876;2024-03-22T01:08:03;10.30;73.30
14585;DHT22;7379;51.506;11.876;2024-03-22T01:10:30;10.30;73.30
14585;DHT22;7379;51.506;11.876;2024-03-22T01:12:57;10.30;73.30
14585;DHT22;7379;51.506;11.876;2024-03-22T01:15:24;10.30;73.30
14585;DHT22;7379;51.506;11.876;2024-03-22T01:17:50;10.30;73.10
14585;DHT22;7379;51.506;11.876;2024-03-22T01:20:16;10.30;73.20
14585;DHT22;7379;51.506;11.876;2024-03-22T01:22:42;10.30;73.20
14585;DHT22;7379;51.506;11.876;2024-03-22T01:25:08;10.30;73.20
14585;DHT22;7379;51.506;11.876;2024-03-22T01:27:35;10.20;73.10
14585;DHT22;7379;51.506;11.876;2024-03-22T01:30:03;10.20;73.10
14585;DHT22;7379;51.506;11.876;2024-03-22T01:32:29;10.20;73.10
14585;DHT22;7379;51.506;11.876;2024-03-22T01:34:57;10.20;73.20
14585;DHT22;7379;51.506;11.876;2024-03-22T01:37:22;10.20;73.10
14585;DHT22;7379;51.506;11.876;2024-03-22T01:39:49;10.20;73.10
14585;DHT22;7379;51.506;11.876;2024-03-22T01:42:15;10.20;73.80
14585;DHT22;7379;51.506;11.876;2024-03-22T01:44:41;10.20;73.10
14585;DHT22;7379;51.506;11.876;2024-03-22T01:47:08;10.20;73.10
14585;DHT22;7379;51.506;11.876;2024-03-22T01:49:35;10.10;73.00
14585;DHT22;7379;51.506;11.876;2024-03-22T01:52:01;10.20;73.10
14585;DHT22;7379;51.506;11.876;2024-03-22T01:54:28;10.10;73.00
14585;DHT22;7379;51.506;11.876;2024-03-22T01:56:56;10.10;73.10
14585;DHT22;7379;51.506;11.876;2024-03-22T01:59:23;10.10;73.10
14585;DHT22;7379;51.506;11.876;2024-03-22T02:01:49;10.10;73.10
14585;DHT22;7379;51.506;11.876;2024-03-22T02:04:17;10.10;73.10
14585;DHT22;7379;51.506;11.876;2024-03-22T02:06:43;10.10;73.10
14585;DHT22;7379;51.506;11.876;2024-03-22T02:09:09;10.10;73.10
14585;DHT22;7379;51.506;11.876;2024-03-22T02:11:36;10.10;73.20
14585;DHT22;7379;51.506;11.876;2024-03-22T02:14:03;10.10;73.20
14585;DHT22;7379;51.506;11.876;2024-03-22T02:16:29;10.10;73.10
14585;DHT22;7379;51.506;11.876;2024-03-22T02:18:56;10.10;73.10
14585;DHT22;7379;51.506;11.876;2024-03-22T02:21:23;10.00;73.00
14585;DHT22;7379;51.506;11.876;2024-03-22T02:23:51;10.00;73.00
14585;DHT22;7379;51.506;11.876;2024-03-22T02:26:16;10.00;73.00
14585;DHT22;7379;51.506;11.876;2024-03-22T02:28:43;10.00;73.00
14585;DHT22;7379;51.506;11.876;2024-03-22T02:31:09;10.00;73.00
14585;DHT22;7379;51.506;11.876;2024-03-22T02:33:35;10.00;73.00
14585;DHT22;7379;51.506;11.876;2024-03-22T02:36:01;10.00;73.00
14585;DHT22;7379;51.506;11.876;2024-03-22T02:38:28;10.00;72.90
14585;DHT22;7379;51.506;11.876;2024-03-22T02:40:54;10.00;73.00
14585;DHT22;7379;51.506;11.876;2024-03-22T02:43:21;9.90;74.00
14585;DHT22;7379;51.506;11.876;2024-03-22T02:45:47;10.00;73.10
14585;DHT22;7379;51.506;11.876;2024-03-22T02:48:14;10.00;73.10
14585;DHT22;7379;51.506;11.876;2024-03-22T02:50:39;9.90;74.00
14585;DHT22;7379;51.506;11.876;2024-03-22T02:53:06;9.90;74.00
14585;DHT22;7379;51.506;11.876;2024-03-22T02:55:36;9.90;74.10
14585;DHT22;7379;51.506;11.876;2024-03-22T02:58:05;10.00;73.00
14585;DHT22;7379;51.506;11.876;2024-03-22T03:00:30;9.90;74.00
14585;DHT22;7379;51.506;11.876;2024-03-22T03:02:58;9.90;74.10
14585;DHT22;7379;51.506;11.876;2024-03-22T03:05:24;9.90;74.10
14585;DHT22;7379;51.506;11.876;2024-03-22T03:07:50;9.90;74.10
14585;DHT22;7379;51.506;11.876;2024-03-22T03:10:16;9.90;74.10
14585;DHT22;7379;51.506;11.876;2024-03-22T03:12:43;9.90;74.10
14585;DHT22;7379;51.506;11.876;2024-03-22T03:15:10;9.90;74.20
14585;DHT22;7379;51.506;11.876;2024-03-22T03:17:37;9.90;74.10
14585;DHT22;7379;51.506;11.876;2024-03-22T03:20:03;9.90;74.10
14585;DHT22;7379;51.506;11.876;2024-03-22T03:22:33;9.90;74.10
14585;DHT22;7379;51.506;11.876;2024-03-22T03:24:58;9.90;74.10
14585;DHT22;7379;51.506;11.876;2024-03-22T03:27:25;9.80;74.10
14585;DHT22;7379;51.506;11.876;2024-03-22T03:29:51;9.90;74.20
14585;DHT22;7379;51.506;11.876;2024-03-22T03:32:19;9.80;74.10
14585;DHT22;7379;51.506;11.876;2024-03-22T03:34:44;9.80;74.10
14585;DHT22;7379;51.506;11.876;2024-03-22T03:37:11;9.80;74.10
14585;DHT22;7379;51.506;11.876;2024-03-22T03:39:37;9.80;74.10
14585;DHT22;7379;51.506;11.876;2024-03-22T03:42:03;9.80;74.10
14585;DHT22;7379;51.506;11.876;2024-03-22T03:44:29;9.80;74.20
14585;DHT22;7379;51.506;11.876;2024-03-22T03:46:56;9.80;74.20
14585;DHT22;7379;51.506;11.876;2024-03-22T03:49:23;9.80;74.20
14585;DHT22;7379;51.506;11.876;2024-03-22T03:51:49;9.80;74.20
14585;DHT22;7379;51.506;11.876;2024-03-22T03:54:15;9.80;74.20
14585;DHT22;7379;51.506;11.876;2024-03-22T03:56:41;9.80;74.20
14585;DHT22;7379;51.506;11.876;2024-03-22T03:59:07;9.80;74.20
14585;DHT22;7379;51.506;11.876;2024-03-22T04:01:34;9.80;74.20
14585;DHT22;7379;51.506;11.876;2024-03-22T04:03:59;9.80;74.20
14585;DHT22;7379;51.506;11.876;2024-03-22T04:06:27;9.80;74.20
14585;DHT22;7379;51.506;11.876;2024-03-22T04:08:53;9.80;74.20
14585;DHT22;7379;51.506;11.876;2024-03-22T04:11:20;9.80;74.20
14585;DHT22;7379;51.506;11.876;2024-03-22T04:13:46;9.80;74.20
14585;DHT22;7379;51.506;11.876;2024-03-22T04:16:13;9.80;74.20
14585;DHT22;7379;51.506;11.876;2024-03-22T04:18:39;9.80;74.20
14585;DHT22;7379;51.506;11.876;2024-03-22T04:21:05;9.80;74.20
14585;DHT22;7379;51.506;11.876;2024-03-22T04:23:32;9.80;74.30
14585;DHT22;7379;51.506;11.876;2024-03-22T04:26:00;9.70;74.20
14585;DHT22;7379;51.506;11.876;2024-03-22T04:28:26;9.70;74.20
14585;DHT22;7379;51.506;11.876;2024-03-22T04:30:59;9.80;74.30
14585;DHT22;7379;51.506;11.876;2024-03-22T04:33:25;9.70;74.20
14585;DHT22;7379;51.506;11.876;2024-03-22T04:35:52;9.70;74.20
14585;DHT22;7379;51.506;11.876;2024-03-22T04:38:18;9.80;74.30
14585;DHT22;7379;51.506;11.876;2024-03-22T04:40:46;9.70;74.20
14585;DHT22;7379;51.506;11.876;2024-03-22T04:43:14;9.70;74.20
14585;DHT22;7379;51.506;11.876;2024-03-22T04:45:42;9.70;74.30
14585;DHT22;7379;51.506;11.876;2024-03-22T04:48:07;9.70;74.20
14585;DHT22;7379;51.506;11.876;2024-03-22T04:50:34;9.70;74.30
14585;DHT22;7379;51.506;11.876;2024-03-22T04:53:00;9.70;74.30
14585;DHT22;7379;51.506;11.876;2024-03-22T04:55:27;9.70;74.20
14585;DHT22;7379;51.506;11.876;2024-03-22T04:57:54;9.70;74.30
14585;DHT22;7379;51.506;11.876;2024-03-22T05:00:21;9.70;74.30
14585;DHT22;7379;51.506;11.876;2024-03-22T05:02:46;9.70;74.30
14585;DHT22;7379;51.506;11.876;2024-03-22T05:05:13;9.70;74.30
14585;DHT22;7379;51.506;11.876;2024-03-22T05:07:39;9.70;74.30
14585;DHT22;7379;51.506;11.876;2024-03-22T05:10:06;9.70;74.40
14585;DHT22;7379;51.506;11.876;2024-03-22T05:12:32;9.70;74.30
14585;DHT22;7379;51.506;11.876;2024-03-22T05:15:00;9.70;74.30
14585;DHT22;7379;51.506;11.876;2024-03-22T05:17:25;9.70;74.30
14585;DHT22;7379;51.506;11.876;2024-03-22T05:19:52;9.70;74.40
14585;DHT22;7379;51.506;11.876;2024-03-22T05:22:18;9.70;74.30
14585;DHT22;7379;51.506;11.876;2024-03-22T05:24:46;9.70;74.40
14585;DHT22;7379;51.506;11.876;2024-03-22T05:27:11;9.70;74.40
14585;DHT22;7379;51.506;11.876;2024-03-22T05:29:38;9.70;74.40
14585;DHT22;7379;51.506;11.876;2024-03-22T05:32:06;9.70;74.40
14585;DHT22;7379;51.506;11.876;2024-03-22T05:34:32;9.70;74.30
14585;DHT22;7379;51.506;11.876;2024-03-22T05:36:58;9.70;74.40
14585;DHT22;7379;51.506;11.876;2024-03-22T05:39:25;9.70;74.40
14585;DHT22;7379;51.506;11.876;2024-03-22T05:41:50;9.70;74.30
14585;DHT22;7379;51.506;11.876;2024-03-22T05:44:17;9.70;74.40
14585;DHT22;7379;51.506;11.876;2024-03-22T05:46:43;9.70;74.30
14585;DHT22;7379;51.506;11.876;2024-03-22T05:49:11;9.70;74.40
14585;DHT22;7379;51.506;11.876;2024-03-22T05:51:37;9.70;74.40
14585;DHT22;7379;51.506;11.876;2024-03-22T05:54:04;9.70;74.40
14585;DHT22;7379;51.506;11.876;2024-03-22T05:56:30;9.70;74.40
14585;DHT22;7379;51.506;11.876;2024-03-22T05:58:56;9.60;74.40
14585;DHT22;7379;51.506;11.876;2024-03-22T06:01:22;9.60;74.30
14585;DHT22;7379;51.506;11.876;2024-03-22T06:03:49;9.70;74.50
14585;DHT22;7379;51.506;11.876;2024-03-22T06:06:16;9.70;74.50
14585;DHT22;7379;51.506;11.876;2024-03-22T06:08:42;9.60;74.40
14585;DHT22;7379;51.506;11.876;2024-03-22T06:11:11;9.70;74.50
14585;DHT22;7379;51.506;11.876;2024-03-22T06:13:36;9.60;74.40
14585;DHT22;7379;51.506;11.876;2024-03-22T06:16:04;9.60;74.40
14585;DHT22;7379;51.506;11.876;2024-03-22T06:18:30;9.70;74.60
14585;DHT22;7379;51.506;11.876;2024-03-22T06:20:57;9.70;74.60
14585;DHT22;7379;51.506;11.876;2024-03-22T06:23:24;9.70;74.60
14585;DHT22;7379;51.506;11.876;2024-03-22T06:25:54;9.70;74.60
14585;DHT22;7379;51.506;11.876;2024-03-22T06:28:20;9.60;74.50
14585;DHT22;7379;51.506;11.876;2024-03-22T06:30:47;9.70;74.60
14585;DHT22;7379;51.506;11.876;2024-03-22T06:33:12;9.60;74.50
14585;DHT22;7379;51.506;11.876;2024-03-22T06:35:40;9.70;74.60
14585;DHT22;7379;51.506;11.876;2024-03-22T06:38:06;9.70;74.70
14585;DHT22;7379;51.506;11.876;2024-03-22T06:40:34;9.70;74.70
14585;DHT22;7379;51.506;11.876;2024-03-22T06:43:00;9.70;74.60
14585;DHT22;7379;51.506;11.876;2024-03-22T06:45:26;9.70;74.70
14585;DHT22;7379;51.506;11.876;2024-03-22T06:47:52;9.70;74.70
14585;DHT22;7379;51.506;11.876;2024-03-22T06:50:19;9.70;74.60
14585;DHT22;7379;51.506;11.876;2024-03-22T06:52:49;9.70;74.70
14585;DHT22;7379;51.506;11.876;2024-03-22T06:55:16;9.70;74.70
14585;DHT22;7379;51.506;11.876;2024-03-22T06:57:44;9.70;74.70
14585;DHT22;7379;51.506;11.876;2024-03-22T07:00:12;9.70;74.70
14585;DHT22;7379;51.506;11.876;2024-03-22T07:02:38;9.70;74.70
14585;DHT22;7379;51.506;11.876;2024-03-22T07:05:05;9.70;74.70
14585;DHT22;7379;51.506;11.876;2024-03-22T07:07:31;9.70;74.70
14585;DHT22;7379;51.506;11.876;2024-03-22T07:09:58;9.70;74.70
14585;DHT22;7379;51.506;11.876;2024-03-22T07:12:24;9.70;74.70
14585;DHT22;7379;51.506;11.876;2024-03-22T07:14:52;9.70;74.80
14585;DHT22;7379;51.506;11.876;2024-03-22T07:17:18;9.70;74.80
14585;DHT22;7379;51.506;11.876;2024-03-22T07:19:49;9.80;75.00
14585;DHT22;7379;51.506;11.876;2024-03-22T07:22:14;9.70;74.80
14585;DHT22;7379;51.506;11.876;2024-03-22T07:24:41;9.80;75.00
14585;DHT22;7379;51.506;11.876;2024-03-22T07:27:07;9.80;75.00
14585;DHT22;7379;51.506;11.876;2024-03-22T07:29:33;9.80;75.10
14585;DHT22;7379;51.506;11.876;2024-03-22T07:32:00;9.80;75.20
14585;DHT22;7379;51.506;11.876;2024-03-22T07:34:27;9.80;75.20
14585;DHT22;7379;51.506;11.876;2024-03-22T07:36:53;9.80;75.20
14585;DHT22;7379;51.506;11.876;2024-03-22T07:39:19;9.80;75.10
14585;DHT22;7379;51.506;11.876;2024-03-22T07:41:45;9.80;75.20
14585;DHT22;7379;51.506;11.876;2024-03-22T07:44:11;9.80;75.20
14585;DHT22;7379;51.506;11.876;2024-03-22T07:46:37;9.80;75.30
14585;DHT22;7379;51.506;11.876;2024-03-22T07:49:05;9.90;75.30
14585;DHT22;7379;51.506;11.876;2024-03-22T07:51:31;9.90;75.30
14585;DHT22;7379;51.506;11.876;2024-03-22T07:53:57;9.90;75.40
14585;DHT22;7379;51.506;11.876;2024-03-22T07:56:23;9.90;75.30
14585;DHT22;7379;51.506;11.876;2024-03-22T07:58:50;9.90;75.30
14585;DHT22;7379;51.506;11.876;2024-03-22T08:01:15;9.90;75.40
14585;DHT22;7379;51.506;11.876;2024-03-22T08:03:43;9.90;75.50
14585;DHT22;7379;51.506;11.876;2024-03-22T08:06:10;9.90;75.60
14585;DHT22;7379;51.506;11.876;2024-03-22T08:08:36;10.00;74.60
14585;DHT22;7379;51.506;11.876;2024-03-22T08:11:02;10.00;74.70
14585;DHT22;7379;51.506;11.876;2024-03-22T08:13:29;10.00;74.90
14585;DHT22;7379;51.506;11.876;2024-03-22T08:15:55;10.10;75.30
14585;DHT22;7379;51.506;11.876;2024-03-22T08:18:21;10.10;75.10
14585;DHT22;7379;51.506;11.876;2024-03-22T08:20:48;10.10;75.10
14585;DHT22;7379;51.506;11.876;2024-03-22T08:23:15;10.10;75.40
14585;DHT22;7379;51.506;11.876;2024-03-22T08:25:43;10.10;75.30
14585;DHT22;7379;51.506;11.876;2024-03-22T08:28:08;10.10;75.40
14585;DHT22;7379;51.506;11.876;2024-03-22T08:30:37;10.10;75.20
14585;DHT22;7379;51.506;11.876;2024-03-22T08:33:03;10.10;75.20
14585;DHT22;7379;51.506;11.876;2024-03-22T08:35:30;10.20;75.60
14585;DHT22;7379;51.506;11.876;2024-03-22T08:37:56;10.20;75.30
14585;DHT22;7379;51.506;11.876;2024-03-22T08:40:25;10.20;75.10
14585;DHT22;7379;51.506;11.876;2024-03-22T08:42:50;10.20;75.00
14585;DHT22;7379;51.506;11.876;2024-03-22T08:45:17;10.20;75.10
14585;DHT22;7379;51.506;11.876;2024-03-22T08:47:43;10.10;75.10
14585;DHT22;7379;51.506;11.876;2024-03-22T08:50:11;10.20;75.20
14585;DHT22;7379;51.506;11.876;2024-03-22T08:52:36;10.20;75.20
14585;DHT22;7379;51.506;11.876;2024-03-22T08:55:04;10.20;75.30
14585;DHT22;7379;51.506;11.876;2024-03-22T08:57:32;10.20;75.30
14585;DHT22;7379;51.506;11.876;2024-03-22T08:59:59;10.20;75.40
14585;DHT22;7379;51.506;11.876;2024-03-22T09:02:24;10.20;75.40
14585;DHT22;7379;51.506;11.876;2024-03-22T09:04:51;10.20;75.30
14585;DHT22;7379;51.506;11.876;2024-03-22T09:07:18;10.20;75.40
14585;DHT22;7379;51.506;11.876;2024-03-22T09:09:45;10.20;75.40
14585;DHT22;7379;51.506;11.876;2024-03-22T09:12:11;10.30;75.50
14585;DHT22;7379;51.506;11.876;2024-03-22T09:14:39;10.30;75.60
14585;DHT22;7379;51.506;11.876;2024-03-22T09:17:05;10.30;75.60
14585;DHT22;7379;51.506;11.876;2024-03-22T09:19:32;10.30;75.50
14585;DHT22;7379;51.506;11.876;2024-03-22T09:21:58;10.30;75.60
14585;DHT22;7379;51.506;11.876;2024-03-22T09:24:24;10.30;75.70
14585;DHT22;7379;51.506;11.876;2024-03-22T09:26:50;10.40;75.90
14585;DHT22;7379;51.506;11.876;2024-03-22T09:29:18;10.40;75.90
14585;DHT22;7379;51.506;11.876;2024-03-22T09:31:45;10.40;75.90
14585;DHT22;7379;51.506;11.876;2024-03-22T09:34:12;10.40;76.50
14585;DHT22;7379;51.506;11.876;2024-03-22T09:36:38;10.40;75.70
14585;DHT22;7379;51.506;11.876;2024-03-22T09:39:05;10.50;76.00
14585;DHT22;7379;51.506;11.876;2024-03-22T09:41:32;10.50;75.80
14585;DHT22;7379;51.506;11.876;2024-03-22T09:43:59;10.50;75.90
14585;DHT22;7379;51.506;11.876;2024-03-22T09:46:26;10.50;75.90
14585;DHT22;7379;51.506;11.876;2024-03-22T09:48:54;10.60;76.10
14585;DHT22;7379;51.506;11.876;2024-03-22T09:51:21;10.60;76.00
14585;DHT22;7379;51.506;11.876;2024-03-22T09:53:48;10.60;75.90
14585;DHT22;7379;51.506;11.876;2024-03-22T09:56:14;10.60;75.90
14585;DHT22;7379;51.506;11.876;2024-03-22T09:58:42;10.70;75.90
14585;DHT22;7379;51.506;11.876;2024-03-22T10:01:08;10.70;75.70
14585;DHT22;7379;51.506;11.876;2024-03-22T10:03:35;10.80;75.70
14585;DHT22;7379;51.506;11.876;2024-03-22T10:06:04;10.80;75.60
14585;DHT22;7379;51.506;11.876;2024-03-22T10:08:30;10.90;75.60
14585;DHT22;7379;51.506;11.876;2024-03-22T10:10:57;11.00;75.50
14585;DHT22;7379;51.506;11.876;2024-03-22T10:13:24;11.10;75.40
14585;DHT22;7379;51.506;11.876;2024-03-22T10:15:49;11.10;75.10
14585;DHT22;7379;51.506;11.876;2024-03-22T10:18:17;11.10;75.10
14585;DHT22;7379;51.506;11.876;2024-03-22T10:20:43;11.10;75.00
14585;DHT22;7379;51.506;11.876;2024-03-22T10:23:11;11.10;75.10
14585;DHT22;7379;51.506;11.876;2024-03-22T10:25:36;11.20;75.10
14585;DHT22;7379;51.506;11.876;2024-03-22T10:28:04;11.20;75.10
14585;DHT22;7379;51.506;11.876;2024-03-22T10:30:30;11.20;75.10
14585;DHT22;7379;51.506;11.876;2024-03-22T10:32:57;11.20;75.00
14585;DHT22;7379;51.506;11.876;2024-03-22T10:35:23;11.20;75.00
14585;DHT22;7379;51.506;11.876;2024-03-22T10:37:51;11.20;75.20
14585;DHT22;7379;51.506;11.876;2024-03-22T10:40:19;11.20;75.30
14585;DHT22;7379;51.506;11.876;2024-03-22T10:42:46;11.20;75.60
14585;DHT22;7379;51.506;11.876;2024-03-22T10:45:12;11.30;75.40
14585;DHT22;7379;51.506;11.876;2024-03-22T10:47:39;11.30;75.40
14585;DHT22;7379;51.506;11.876;2024-03-22T10:50:07;11.30;75.30
14585;DHT22;7379;51.506;11.876;2024-03-22T10:52:37;11.30;75.20
14585;DHT22;7379;51.506;11.876;2024-03-22T10:55:05;11.40;75.20
14585;DHT22;7379;51.506;11.876;2024-03-22T10:57:35;11.40;75.10
14585;DHT22;7379;51.506;11.876;2024-03-22T11:00:04;11.40;75.10
14585;DHT22;7379;51.506;11.876;2024-03-22T11:02:35;11.40;75.00
14585;DHT22;7379;51.506;11.876;2024-03-22T11:05:01;11.50;75.30
14585;DHT22;7379;51.506;11.876;2024-03-22T11:07:29;11.50;75.30
14585;DHT22;7379;51.506;11.876;2024-03-22T11:09:56;11.50;75.50
14585;DHT22;7379;51.506;11.876;2024-03-22T11:12:24;11.50;75.20
14585;DHT22;7379;51.506;11.876;2024-03-22T11:14:52;11.60;75.20
14585;DHT22;7379;51.506;11.876;2024-03-22T11:17:19;11.60;75.20
14585;DHT22;7379;51.506;11.876;2024-03-22T11:19:46;11.60;75.20
14585;DHT22;7379;51.506;11.876;2024-03-22T11:22:13;11.70;75.50
14585;DHT22;7379;51.506;11.876;2024-03-22T11:24:40;11.60;75.20
14585;DHT22;7379;51.506;11.876;2024-03-22T11:27:07;11.60;75.20
14585;DHT22;7379;51.506;11.876;2024-03-22T11:29:35;11.70;75.30
14585;DHT22;7379;51.506;11.876;2024-03-22T11:32:06;11.70;75.20
14585;DHT22;7379;51.506;11.876;2024-03-22T11:34:34;11.80;75.10
14585;DHT22;7379;51.506;11.876;2024-03-22T11:37:01;11.80;75.00
14585;DHT22;7379;51.506;11.876;2024-03-22T11:39:26;11.80;75.00
14585;DHT22;7379;51.506;11.876;2024-03-22T11:41:53;11.90;75.00
14585;DHT22;7379;51.506;11.876;2024-03-22T11:44:19;11.90;74.90
14585;DHT22;7379;51.506;11.876;2024-03-22T11:46:48;12.00;75.00
14585;DHT22;7379;51.506;11.876;2024-03-22T11:49:15;12.00;75.00
14585;DHT22;7379;51.506;11.876;2024-03-22T11:51:42;12.00;75.10
14585;DHT22;7379;51.506;11.876;2024-03-22T11:54:07;12.10;74.70
14585;DHT22;7379;51.506;11.876;2024-03-22T11:56:35;12.10;74.70
14585;DHT22;7379;51.506;11.876;2024-03-22T11:59:01;12.10;74.80
14585;DHT22;7379;51.506;11.876;2024-03-22T12:01:28;12.20;74.40
14585;DHT22;7379;51.506;11.876;2024-03-22T12:03:54;12.20;74.50
14585;DHT22;7379;51.506;11.876;2024-03-22T12:06:23;12.20;74.60
14585;DHT22;7379;51.506;11.876;2024-03-22T12:08:48;12.20;74.60
14585;DHT22;7379;51.506;11.876;2024-03-22T12:11:16;12.20;75.60
14585;DHT22;7379;51.506;11.876;2024-03-22T12:13:42;12.20;75.20
14585;DHT22;7379;51.506;11.876;2024-03-22T12:16:08;12.20;75.50
14585;DHT22;7379;51.506;11.876;2024-03-22T12:18:34;12.20;75.80
14585;DHT22;7379;51.506;11.876;2024-03-22T12:21:01;12.20;76.10
14585;DHT22;7379;51.506;11.876;2024-03-22T12:23:28;12.20;76.10
14585;DHT22;7379;51.506;11.876;2024-03-22T12:25:55;12.20;76.50
14585;DHT22;7379;51.506;11.876;2024-03-22T12:28:21;12.20;76.40
14585;DHT22;7379;51.506;11.876;2024-03-22T12:30:48;12.20;76.70
14585;DHT22;7379;51.506;11.876;2024-03-22T12:33:14;12.20;76.90
14585;DHT22;7379;51.506;11.876;2024-03-22T12:35:41;12.30;77.20
14585;DHT22;7379;51.506;11.876;2024-03-22T12:38:07;12.30;77.40
14585;DHT22;7379;51.506;11.876;2024-03-22T12:40:37;12.30;77.70
14585;DHT22;7379;51.506;11.876;2024-03-22T12:43:03;12.30;78.10
14585;DHT22;7379;51.506;11.876;2024-03-22T12:45:31;12.30;78.50
14585;DHT22;7379;51.506;11.876;2024-03-22T12:47:58;12.30;79.60
14585;DHT22;7379;51.506;11.876;2024-03-22T12:50:24;12.30;78.40
14585;DHT22;7379;51.506;11.876;2024-03-22T12:52:50;12.30;78.90
14585;DHT22;7379;51.506;11.876;2024-03-22T12:55:17;12.30;78.80
14585;DHT22;7379;51.506;11.876;2024-03-22T12:57:44;12.30;79.00
14585;DHT22;7379;51.506;11.876;2024-03-22T13:00:12;12.30;78.70
14585;DHT22;7379;51.506;11.876;2024-03-22T13:02:39;12.30;78.60
14585;DHT22;7379;51.506;11.876;2024-03-22T13:05:06;12.40;78.80
14585;DHT22;7379;51.506;11.876;2024-03-22T13:07:32;12.30;78.70
14585;DHT22;7379;51.506;11.876;2024-03-22T13:09:59;12.30;78.80
14585;DHT22;7379;51.506;11.876;2024-03-22T13:12:25;12.30;78.90
14585;DHT22;7379;51.506;11.876;2024-03-22T13:14:53;12.40;78.70
14585;DHT22;7379;51.506;11.876;2024-03-22T13:17:19;12.40;78.90
14585;DHT22;7379;51.506;11.876;2024-03-22T13:19:46;12.40;79.40
14585;DHT22;7379;51.506;11.876;2024-03-22T13:22:11;12.50;78.60
14585;DHT22;7379;51.506;11.876;2024-03-22T13:24:40;12.50;79.00
14585;DHT22;7379;51.506;11.876;2024-03-22T13:27:05;12.50;78.80
14585;DHT22;7379;51.506;11.876;2024-03-22T13:29:33;12.50;79.10
14585;DHT22;7379;51.506;11.876;2024-03-22T13:32:01;12.50;78.60
14585;DHT22;7379;51.506;11.876;2024-03-22T13:34:27;12.50;79.00
14585;DHT22;7379;51.506;11.876;2024-03-22T13:36:54;12.60;78.80
14585;DHT22;7379;51.506;11.876;2024-03-22T13:39:19;12.60;78.60
14585;DHT22;7379;51.506;11.876;2024-03-22T13:41:46;12.50;78.70
14585;DHT22;7379;51.506;11.876;2024-03-22T13:44:12;12.50;78.60
14585;DHT22;7379;51.506;11.876;2024-03-22T13:46:39;12.50;78.80
14585;DHT22;7379;51.506;11.876;2024-03-22T13:49:13;12.50;78.80
14585;DHT22;7379;51.506;11.876;2024-03-22T13:51:41;12.50;78.70
14585;DHT22;7379;51.506;11.876;2024-03-22T13:54:06;12.50;78.70
14585;DHT22;7379;51.506;11.876;2024-03-22T13:56:33;12.50;78.80
14585;DHT22;7379;51.506;11.876;2024-03-22T13:58:59;12.50;79.10
14585;DHT22;7379;51.506;11.876;2024-03-22T14:01:25;12.50;79.10
14585;DHT22;7379;51.506;11.876;2024-03-22T14:03:51;12.50;79.40
14585;DHT22;7379;51.506;11.876;2024-03-22T14:06:19;12.50;79.10
14585;DHT22;7379;51.506;11.876;2024-03-22T14:08:45;12.50;82.00
14585;DHT22;7379;51.506;11.876;2024-03-22T14:11:11;12.50;81.60
14585;DHT22;7379;51.506;11.876;2024-03-22T14:13:37;12.60;80.90
14585;DHT22;7379;51.506;11.876;2024-03-22T14:16:04;12.60;80.40
14585;DHT22;7379;51.506;11.876;2024-03-22T14:18:32;12.60;80.30
14585;DHT22;7379;51.506;11.876;2024-03-22T14:21:00;12.60;79.90
14585;DHT22;7379;51.506;11.876;2024-03-22T14:23:27;12.60;79.70
14585;DHT22;7379;51.506;11.876;2024-03-22T14:25:55;12.60;80.10
14585;DHT22;7379;51.506;11.876;2024-03-22T14:28:20;12.50;79.80
14585;DHT22;7379;51.506;11.876;2024-03-22T14:30:48;12.60;79.90
14585;DHT22;7379;51.506;11.876;2024-03-22T14:33:14;12.50;80.10
14585;DHT22;7379;51.506;11.876;2024-03-22T14:35:42;12.60;80.10
14585;DHT22;7379;51.506;11.876;2024-03-22T14:38:08;12.50;79.60
14585;DHT22;7379;51.506;11.876;2024-03-22T14:40:36;12.50;79.90
14585;DHT22;7379;51.506;11.876;2024-03-22T14:43:02;12.60;80.30
14585;DHT22;7379;51.506;11.876;2024-03-22T14:45:30;12.60;80.40
14585;DHT22;7379;51.506;11.876;2024-03-22T14:47:55;12.50;80.10
14585;DHT22;7379;51.506;11.876;2024-03-22T14:50:22;12.60;80.00
14585;DHT22;7379;51.506;11.876;2024-03-22T14:52:49;12.50;80.50
14585;DHT22;7379;51.506;11.876;2024-03-22T14:55:17;12.60;81.20
14585;DHT22;7379;51.506;11.876;2024-03-22T14:57:44;12.60;80.70
14585;DHT22;7379;51.506;11.876;2024-03-22T15:00:12;12.50;80.70
14585;DHT22;7379;51.506;11.876;2024-03-22T15:02:38;12.50;80.70
14585;DHT22;7379;51.506;11.876;2024-03-22T15:05:05;12.50;81.10
14585;DHT22;7379;51.506;11.876;2024-03-22T15:07:31;12.50;81.40
14585;DHT22;7379;51.506;11.876;2024-03-22T15:09:58;12.50;81.40
14585;DHT22;7379;51.506;11.876;2024-03-22T15:12:23;12.50;81.80
14585;DHT22;7379;51.506;11.876;2024-03-22T15:14:53;12.50;81.40
14585;DHT22;7379;51.506;11.876;2024-03-22T15:17:18;12.50;81.70
14585;DHT22;7379;51.506;11.876;2024-03-22T15:19:48;12.50;81.80
14585;DHT22;7379;51.506;11.876;2024-03-22T15:22:14;12.50;81.50
14585;DHT22;7379;51.506;11.876;2024-03-22T15:24:43;12.40;81.70
14585;DHT22;7379;51.506;11.876;2024-03-22T15:27:09;12.40;81.50
14585;DHT22;7379;51.506;11.876;2024-03-22T15:29:36;12.40;81.30
14585;DHT22;7379;51.506;11.876;2024-03-22T15:32:04;12.40;81.60